Weather at Tappahannock Hospital Heliport

Public forecast

Using degrees Fahrenheit for public forecast. Weather courtesy of forecast.io.

Closest aviation weather report (METAR) to Tappahannock Hospital Heliport

Closest report is Tappahannock-Essex County Airport, 2.6 nm (4.9 km) SSW. Retrieved 2020/11/28 16:35 UTC (0 seconds ago):

KXSA 281635Z AUTO 28003KT 10SM SCT043 SCT050 15/06 A3007 RMK AO2 T01460058

Closest aviation forecast (TAF) to Tappahannock Hospital Heliport

Closest forecast is Richmond International Airport, 31.7 nm (58.8 km) SW. Retrieved 2020/11/28 12:48 UTC (3 hours ago):

TAF KRIC 281147Z 2812/2912 34004KT 5SM BR SCT005 SCT020 TEMPO 2812/2813 2SM BR BKN005 FM281400 01005KT P6SM SCT050 FM281700 32007KT P6SM SCT050 FM290200 02002KT P6SM SKC